Edwards Air Force Base
KEDW : now visible

Airfield :











YOU CAN JOIN US ON...

 
LOGIN :

Register | Disclaimer

   EN    FR    IT 

 









Legend :    VFR   Marginal VFR   IFR   Intensive IFR   Very Intensive IFR
Visi :
Ceiling :
>= 8 km
>= 3000ft
5 to 8 km
1000 to 3000 ft
1500m to 5 km
500 to 1000 ft
800 to 1500m
200 to 500 ft
< 800m
< 200 ft
Symbols :   Thunderstorms  Fog  Heavy snow  Heavy precipitations  Wind > 20 kt






- Airport Elevation : 2312 ft


KEDW - Edwards Air Force Base

CURRENT METAR :
  • 221258Z 22011KT 50SM FEW050 SCT120 09/05 A2981 RMK AO2A SLP087 T00890051

EXPIRED METARs :
  • 221158Z AUTO 21013KT 10SM CLR 09/05 A2981 RMK AO2 SLP087 T00930053 10125 20093 53001
  • 221058Z AUTO 21011KT 10SM FEW120 10/05 A2980 RMK AO2 SLP081 T00960052

TAF TAF KEDW
Valid from the 22 at 13:00 until the 23 at 19:00 UTC


221245Z 2213/2319 23012KT 9999 FEW050 SCT120 610124 QNH2979INS
BECMG 2216/2217 26012G18KT 9999 FEW050 SCT120 610124 510009 510909 QNH2984INS
BECMG 2220/2221 25015G25KT 9999 FEW050 SCT120 610124 520009 520909 QNH2977INS
BECMG 2222/2223 27020G30KT 9999 FEW120 530009 530909 QNH2974INS
TEMPO 2223/2301 27025G35KT
BECMG 2307/2308 24012G20KT 9999 FEW120 510009 510909 QNH2982INS TX24/2223Z TN08/2213Z
KZLA FIR / North America



MET'MAP, your aeronautical weather chart ! - Copyright ORBIFLY December 2007 - Disclaimer

ORBIFLY MET'MAP TEAM :

Programming & Development : Alexandra Zaïnal
Concept & original design : Baudouin d'Aumeries
Assistance for programming : Marc-Olivier Méhu
Technical & hardware support : Manuel Goepfert

Contact : metmap@orbifly.com




SOURCES & CREDITS :

   NOAA       Earth
Advisory